• Join FlightAware (Why Join?)
  • Login
  • US Flag 
10:27AM EDT


 

Airport Tracker/Info


-or-


 

Live Flight TrackerFlight Track Log ✈ FLG3736 ✈ 27-Apr-2012 ✈ KMCO - KRDU

Flight Track Log - Related Links

Times and Time Zones

All times are in EDT time to prevent confusion due to time zone crossing. See the FLG3736 flight status page for this flight to view local times or setup timezone preferences in your user account.

Time Position Orientation Groundspeed Altitude Reporting Facility
EDT Latitude Longitude Course Direction KTS MPH feet Rate Location/Type
05:12PM 28.4000 -81.3000 120° Southeast 181 208 700  Level Orlando TRACON
05:14PM 28.3667 -81.2333 106° East 210 242 3,500 2,280 Climbing Orlando TRACON
05:15PM 28.3500 -81.1667 24° Northeast 240 276 6,000 2,280 Climbing Orlando TRACON
05:16PM 28.4167 -81.1333 336° Northwest 291 335 8,400 2,160 Climbing Orlando TRACON
05:17PM 28.4833 -81.1667 341° North 295 339 10,400 1,860 Climbing Orlando TRACON
05:19PM 28.6358 -81.2250 343° North 320 368 13,800 1,440 Climbing Jacksonville Center
05:20PM 28.7258 -81.2567 342° North 327 376 14,700 900 Climbing Jacksonville Center
05:21PM 28.8225 -81.2931 344° North 345 397 15,700 960 Climbing Jacksonville Center
05:22PM 28.9231 -81.3269 344° North 361 415 16,700 960 Climbing Jacksonville Center
05:24PM 29.1325 -81.3972 354° North 379 436 18,700 960 Climbing Jacksonville Center
05:25PM 29.2411 -81.4100 357° North 379 436 19,700 960 Climbing Jacksonville Center
05:26PM 29.3497 -81.4156 355° North 389 448 20,700 960 Climbing Jacksonville Center
05:27PM 29.4544 -81.4258 355° North 389 448 21,700 1,020 Climbing Jacksonville Center
05:28PM 29.5631 -81.4361 355° North 389 448 22,800 900 Climbing Jacksonville Center
05:29PM 29.6694 -81.4464 355° North 389 448 23,600 780 Climbing Jacksonville Center
05:30PM 29.7783 -81.4569 354° North 389 448 24,400 720 Climbing Jacksonville Center
05:31PM 29.8892 -81.4694 356° North 389 448 25,100 720 Climbing Jacksonville Center
05:32PM 30.0039 -81.4797 355° North 395 455 25,900 780 Climbing Jacksonville Center
05:33PM 30.1189 -81.4903 356° North 405 466 26,700 720 Climbing Jacksonville Center
05:34PM 30.2339 -81.5006 356° North 405 466 27,400 660 Climbing Jacksonville Center
05:35PM 30.3467 -81.5086 North 410 472 28,100 720 Climbing Jacksonville Center
05:36PM 30.4511 -81.4997 North 410 472 28,900 420 Climbing Jacksonville Center
05:37PM 30.5678 -81.4908 North 410 472 29,000  Climbing Jacksonville Center
05:38PM 30.6889 -81.4794 North 416 479 29,000  Level Jacksonville Center
05:39PM 30.8119 -81.4703 North 428 493 29,000  Level Jacksonville Center
05:40PM 30.9350 -81.4611 North 433 498 29,000  Level Jacksonville Center
05:41PM 31.0600 -81.4447 North 444 511 29,000  Level Jacksonville Center
05:42PM 31.1892 -81.4281 North 449 517 29,000  Level Jacksonville Center
05:43PM 31.3144 -81.4092 North 449 517 29,000  Level Jacksonville Center
05:44PM 31.4542 -81.3925 North 454 522 29,000  Level Jacksonville Center
05:45PM 31.5853 -81.3756 North 454 522 29,000  Level Jacksonville Center
05:46PM 31.7125 -81.3589 North 462 532 29,000  Level Jacksonville Center
05:47PM 31.8250 -81.3447 North 462 532 29,000  Level Jacksonville Center
05:48PM 31.9689 -81.3203 North 467 537 29,000  Level Jacksonville Center
05:49PM 32.0939 -81.3036 North 460 529 29,000  Level Jacksonville Center
05:50PM 32.2231 -81.2864 North 460 529 29,000  Level Jacksonville Center
05:51PM 32.3483 -81.2694 North 460 529 29,000  Level Jacksonville Center
05:52PM 32.4753 -81.2525 North 460 529 29,000  Level Jacksonville Center
05:53PM 32.5900 -81.2381 North 460 529 29,000  Level Jacksonville Center
05:54PM 32.7253 -81.2158 13° North 460 529 29,000 -120 Level Jacksonville Center
05:55PM 32.8522 -81.1814 15° North 460 529 28,800 -600 Descending Jacksonville Center
05:56PM 32.9769 -81.1419 13° North 460 529 27,800 -900 Descending Jacksonville Center
05:57PM 33.1081 -81.1069 14° North 468 539 27,000 -420 Descending Jacksonville Center
05:58PM 33.2389 -81.0672 13° North 473 544 27,000  Level Jacksonville Center
05:59PM 33.3511 -81.0350 14° North 467 537 27,000  Level Jacksonville Center
06:00PM 33.4800 -80.9975 13° North 467 537 27,000  Level Jacksonville Center
06:01PM 33.6089 -80.9622 15° North 472 543 27,000  Level Jacksonville Center
06:02PM 33.7333 -80.9222 14° North 462 532 27,000  Level Jacksonville Center
06:03PM 33.8581 -80.8844 14° North 462 532 27,000  Level Jacksonville Center
06:04PM 33.9806 -80.8489 14° North 457 526 27,000 -120 Level Jacksonville Center
06:05PM 34.1072 -80.8108 15° North 457 526 26,800 -600 Descending Jacksonville Center
06:06PM 34.2317 -80.7703 32° Northeast 457 526 25,800 -1,020 Descending Jacksonville Center
06:07PM 34.3469 -80.6844 39° Northeast 444 511 24,800 -720 Descending Jacksonville Center
06:08PM 34.5342 -80.5011 45° Northeast 476 548 24,000 -300 Descending Atlanta Center
06:09PM 34.6311 -80.3833 48° Northeast 484 557 24,000 -660 Level Atlanta Center
06:12PM 34.8422 -80.0964 48° Northeast 497 572 22,000 -660 Descending Washington Center
06:13PM 34.9303 -79.9772 41° Northeast 487 560 21,900 -540 Descending Washington Center
06:14PM 35.0319 -79.8711 40° Northeast 476 548 21,000 -480 Descending Washington Center
06:15PM 35.1294 -79.7722 40° Northeast 465 535 21,000 -1,320 Level Washington Center
06:16PM 35.2311 -79.6681 37° Northeast 465 535 18,400 -3,000 Descending Washington Center
06:17PM 35.3022 -79.6031 41° Northeast 433 498 15,800 -2,820 Descending Washington Center
06:18PM 35.3994 -79.4983 40° Northeast 413 475 12,900 -2,340 Descending Washington Center
06:18PM 35.4686 -79.4278 49° Northeast 402 463 11,300 -1,080 Descending Washington Center
06:20PM 35.5472 -79.3167 55° Northeast 402 463 11,000 -600 Descending Washington Center
06:20PM 35.6025 -79.2194 57° Northeast 355 409 10,200 -1,440 Descending Washington Center
06:22PM 35.6622 -79.1047 56° Northeast 317 365 8,000 -1,740 Descending Washington Center
06:23PM 35.7039 -79.0297 51° Northeast 291 335 6,300 -1,860 Descending Washington Center
06:23PM 35.7478 -78.9625 45° Northeast 282 325 4,700 -1,800 Descending Washington Center
06:25PM 35.7975 -78.9006 46° Northeast 257 296 3,100 -1,560 Descending Washington Center
06:25PM 35.8319 -78.8561 46° Northeast 185 213 1,800 -1,080 Descending Washington Center
06:27PM 35.8644 -78.8139 46° Northeast 133 153 700 -840 Descending Washington Center